Time;durP1;ratioP1;P1;durP2;ratioP2;P2;SDS_P1;SDS_P2;PMS_P1;PMS_P2;Temp;Humidity;BMP_temperature;BMP_pressure;BME280_temperature;BME280_humidity;BME280_pressure;Samples;Min_cycle;Max_cycle;Signal;HPM_P1;HPM_P2
2021/11/02 00:00:49;;;;;;;30.63;18.88;;;7.40;99.90;;;;;;5096486;28;20405;-69
2021/11/02 00:03:15;;;;;;;31.40;18.73;;;7.50;99.90;;;;;;5096424;28;20028;-70
2021/11/02 00:05:41;;;;;;;33.13;19.50;;;7.40;99.90;;;;;;5096594;28;20027;-69
2021/11/02 00:08:06;;;;;;;32.42;20.42;;;7.50;99.90;;;;;;5096660;28;20481;-69
2021/11/02 00:10:33;;;;;;;34.13;17.98;;;7.50;99.90;;;;;;5094988;28;20039;-69
2021/11/02 00:12:59;;;;;;;31.73;18.52;;;7.50;99.90;;;;;;5096469;28;20077;-70
2021/11/02 00:15:28;;;;;;;29.90;18.17;;;7.50;99.90;;;;;;5095128;28;20023;-69
2021/11/02 00:17:57;;;;;;;35.63;19.20;;;7.50;99.90;;;;;;5096500;28;20028;-69
2021/11/02 00:20:23;;;;;;;38.05;20.33;;;7.50;99.90;;;;;;5096280;28;20032;-69
2021/11/02 00:22:56;;;;;;;33.63;18.35;;;7.50;99.90;;;;;;5096082;28;20024;-71
2021/11/02 00:25:22;;;;;;;;;;;7.50;99.90;;;;;;5095207;28;20397;-69
2021/11/02 00:27:49;;;;;;;29.92;17.50;;;7.50;99.90;;;;;;5095013;28;20352;-69
2021/11/02 00:30:15;;;;;;;30.33;18.88;;;7.50;99.90;;;;;;5096079;28;20020;-69
2021/11/02 00:32:42;;;;;;;33.72;18.98;;;7.40;99.90;;;;;;5096060;28;20477;-70
2021/11/02 00:35:11;;;;;;;34.60;19.63;;;7.40;99.90;;;;;;5096114;28;20047;-69
2021/11/02 00:37:37;;;;;;;38.38;22.27;;;7.30;99.90;;;;;;5094761;28;20020;-69
2021/11/02 00:40:06;;;;;;;35.85;19.63;;;7.40;99.90;;;;;;5094705;28;20478;-70
2021/11/02 00:42:56;;;;;;;38.28;22.90;;;7.40;99.90;;;;;;5095936;28;20508;-69
2021/11/02 00:45:55;;;;;;;31.73;18.98;;;7.30;99.90;;;;;;5095546;28;20057;-69
2021/11/02 00:48:23;;;;;;;31.95;18.75;;;7.30;99.90;;;;;;5094504;28;20039;-69
2021/11/02 00:50:48;;;;;;;29.98;18.38;;;7.30;99.90;;;;;;5088406;28;20025;-69
2021/11/02 00:53:14;;;;;;;40.72;22.60;;;7.30;99.90;;;;;;5082355;28;20024;-70
2021/11/02 00:55:40;;;;;;;36.60;21.92;;;7.30;99.90;;;;;;5095527;28;20028;-69
2021/11/02 00:58:06;;;;;;;44.28;25.27;;;7.30;99.90;;;;;;5094213;28;20030;-69
2021/11/02 01:00:33;;;;;;;39.35;22.55;;;7.30;99.90;;;;;;5095248;28;20032;-69
2021/11/02 01:02:59;;;;;;;35.03;21.27;;;7.30;99.90;;;;;;5094329;28;20021;-69
2021/11/02 01:05:25;;;;;;;33.53;19.95;;;7.30;99.90;;;;;;5095380;28;20031;-69
2021/11/02 01:07:50;;;;;;;33.83;18.88;;;7.20;99.90;;;;;;5095484;28;20020;-70
2021/11/02 01:10:16;;;;;;;27.58;16.52;;;7.30;99.90;;;;;;5079716;28;20032;-69
2021/11/02 01:12:47;;;;;;;29.67;17.52;;;7.30;99.90;;;;;;5075050;28;20107;-70
2021/11/02 01:15:15;;;;;;;29.02;17.92;;;7.30;99.90;;;;;;5075086;28;20033;-71
2021/11/02 01:17:41;;;;;;;34.13;20.80;;;7.30;99.90;;;;;;5073774;28;20120;-69
2021/11/02 01:20:09;;;;;;;41.83;24.25;;;7.40;99.90;;;;;;5074974;28;20093;-70
2021/11/02 01:22:34;;;;;;;52.97;28.00;;;7.30;99.90;;;;;;5075294;28;20036;-69
2021/11/02 01:25:00;;;;;;;56.13;28.92;;;7.30;99.90;;;;;;5086628;28;20485;-69
2021/11/02 01:27:26;;;;;;;48.67;25.15;;;7.20;99.90;;;;;;5095101;28;20039;-70
2021/11/02 01:29:52;;;;;;;43.92;25.42;;;7.20;99.90;;;;;;5094989;28;20461;-69
2021/11/02 01:32:18;;;;;;;40.95;23.02;;;7.20;99.90;;;;;;5094828;28;20174;-69
2021/11/02 01:34:44;;;;;;;39.03;21.85;;;7.20;99.90;;;;;;5090354;28;20020;-69
2021/11/02 01:37:10;;;;;;;30.92;18.60;;;7.20;99.90;;;;;;5093618;28;20115;-70
2021/11/02 01:39:35;;;;;;;29.27;17.17;;;7.20;99.90;;;;;;5094820;28;20028;-69
2021/11/02 01:42:01;;;;;;;31.33;18.05;;;7.30;99.90;;;;;;5094867;28;20032;-70
2021/11/02 01:44:29;;;;;;;28.17;17.77;;;7.40;99.90;;;;;;5094726;28;20034;-69
2021/11/02 01:46:55;;;;;;;29.60;18.13;;;7.40;99.90;;;;;;5094738;28;20358;-69
2021/11/02 01:49:21;;;;;;;31.70;17.27;;;7.40;99.90;;;;;;5094593;28;20086;-68
2021/11/02 01:51:47;;;;;;;28.30;16.55;;;7.50;99.90;;;;;;5093369;28;20032;-70
2021/11/02 01:54:13;;;;;;;26.08;16.55;;;7.60;99.90;;;;;;5094217;28;20028;-69
2021/11/02 01:56:41;;;;;;;27.63;15.55;;;7.60;99.90;;;;;;5093175;28;20027;-70
2021/11/02 01:59:07;;;;;;;24.08;15.73;;;7.70;99.90;;;;;;5094550;28;20020;-69
2021/11/02 02:01:57;;;;;;;24.98;14.45;;;7.70;99.90;;;;;;5094144;28;20366;-70
2021/11/02 02:04:40;;;;;;;25.33;15.75;;;7.80;99.90;;;;;;5094292;28;20031;-69
2021/11/02 02:07:25;;;;;;;24.88;14.93;;;7.80;99.90;;;;;;5086721;28;20103;-69
2021/11/02 02:10:33;;;;;;;25.90;15.88;;;7.90;99.90;;;;;;5087142;28;20032;-69
2021/11/02 02:13:21;;;;;;;27.77;16.63;;;7.90;99.90;;;;;;5073913;28;20036;-69
2021/11/02 02:15:56;;;;;;;23.98;15.95;;;7.90;99.90;;;;;;5073890;28;20466;-69
2021/11/02 02:18:38;;;;;;;27.73;15.45;;;7.90;99.90;;;;;;5073859;28;20059;-69
2021/11/02 02:21:50;;;;;;;30.02;17.45;;;8.00;99.90;;;;;;5073814;28;20029;-69
2021/11/02 02:24:40;;;;;;;28.67;16.10;;;8.00;99.90;;;;;;5085378;28;20036;-69
2021/11/02 02:27:29;;;;;;;23.00;14.30;;;8.00;99.90;;;;;;5092007;28;20036;-69
2021/11/02 02:29:58;;;;;;;26.90;16.10;;;8.10;99.90;;;;;;5089239;28;20020;-69
2021/11/02 02:32:26;;;;;;;26.77;16.35;;;8.10;99.90;;;;;;5093713;28;20543;-69
2021/11/02 02:34:56;;;;;;;28.40;16.55;;;8.10;99.90;;;;;;5093813;28;20384;-69
2021/11/02 02:37:24;;;;;;;24.17;16.25;;;8.10;99.90;;;;;;5093691;28;20027;-69
2021/11/02 02:39:53;;;;;;;26.33;16.15;;;8.10;99.90;;;;;;5093721;28;20466;-69
2021/11/02 02:42:19;;;;;;;24.25;15.73;;;8.10;99.90;;;;;;5093668;28;20099;-69
2021/11/02 02:44:48;;;;;;;28.42;16.27;;;8.10;99.90;;;;;;5093516;28;20518;-69
2021/11/02 02:47:18;;;;;;;27.00;16.45;;;8.10;99.90;;;;;;5093593;28;20016;-69
2021/11/02 02:49:46;;;;;;;28.33;17.25;;;8.00;99.90;;;;;;5092797;28;20428;-69
2021/11/02 02:52:13;;;;;;;29.42;17.50;;;8.00;99.90;;;;;;5093506;28;20046;-69
2021/11/02 02:54:42;;;;;;;27.35;16.30;;;8.00;99.90;;;;;;5091949;28;20023;-69
2021/11/02 02:57:10;;;;;;;23.75;15.88;;;8.00;99.90;;;;;;5093451;28;20473;-69
2021/11/02 02:59:37;;;;;;;23.10;16.02;;;8.00;99.90;;;;;;5093291;28;20374;-69
2021/11/02 03:02:04;;;;;;;28.65;16.02;;;8.00;99.90;;;;;;5093371;28;20021;-69
2021/11/02 03:04:34;;;;;;;28.30;15.93;;;8.00;99.90;;;;;;5093179;28;20024;-69
2021/11/02 03:07:02;;;;;;;23.52;15.18;;;8.00;99.90;;;;;;5093211;28;20049;-69
2021/11/02 03:09:29;;;;;;;27.45;17.17;;;8.10;99.90;;;;;;5093276;28;20024;-69
2021/11/02 03:11:56;;;;;;;27.27;16.70;;;8.10;99.90;;;;;;5093108;28;20043;-69
2021/11/02 03:17:49;;;;;;;27.05;17.88;;;8.10;99.90;;;;;;5090420;28;20036;-69
2021/11/02 05:55:23;;;;;;;35.22;20.45;;;7.50;99.90;;;;;;5085052;28;20032;-69
2021/11/02 05:58:26;;;;;;;35.97;19.83;;;7.50;99.90;;;;;;5091511;28;20457;-69
2021/11/02 06:01:07;;;;;;;37.60;22.50;;;7.50;99.90;;;;;;5091854;28;20027;-69
2021/11/02 06:03:35;;;;;;;32.75;20.83;;;7.50;99.90;;;;;;5092359;28;20043;-69
2021/11/02 06:29:04;;;;;;;34.22;20.58;;;7.60;99.90;;;;;;5089796;28;20058;-69
2021/11/02 06:31:36;;;;;;;37.58;19.73;;;7.60;99.90;;;;;;5093338;28;20159;-70
2021/11/02 06:34:36;;;;;;;30.73;18.65;;;7.60;99.90;;;;;;5093327;28;20012;-69
2021/11/02 06:39:46;;;;;;;35.22;21.70;;;7.70;99.90;;;;;;5093164;28;20027;-69
2021/11/02 06:47:59;;;;;;;36.97;22.45;;;7.80;99.90;;;;;;5091628;28;20033;-70
2021/11/02 07:18:37;;;;;;;33.10;20.27;;;8.30;99.90;;;;;;5089965;28;19970;-70
2021/11/02 07:21:12;;;;;;;39.83;23.45;;;8.30;99.90;;;;;;5092722;28;20028;-69
2021/11/02 07:23:59;;;;;;;36.47;23.95;;;8.30;99.90;;;;;;5088613;28;20020;-70
2021/11/02 07:26:41;;;;;;;40.72;24.42;;;8.40;99.90;;;;;;5090404;28;20025;-69
2021/11/02 08:47:48;;;;;;;39.03;23.05;;;8.80;99.90;;;;;;5094078;28;20473;-70
2021/11/02 08:50:20;;;;;;;39.35;23.27;;;8.80;99.90;;;;;;5092097;28;20478;-70
2021/11/02 08:52:51;;;;;;;37.22;22.42;;;8.80;99.90;;;;;;5091866;28;20178;-70
2021/11/02 08:55:17;;;;;;;36.38;21.08;;;8.80;99.90;;;;;;5092098;28;20078;-70
2021/11/02 08:57:45;;;;;;;35.55;22.25;;;8.80;99.90;;;;;;5100571;28;20020;-70
2021/11/02 09:00:11;;;;;;;36.28;21.98;;;8.90;99.90;;;;;;5094476;28;20036;-70
2021/11/02 09:02:44;;;;;;;36.17;22.13;;;8.90;99.90;;;;;;5094000;28;20359;-71
2021/11/02 09:05:14;;;;;;;38.80;21.88;;;8.80;99.90;;;;;;5094813;28;20035;-70
2021/11/02 09:07:44;;;;;;;35.22;21.75;;;8.90;99.90;;;;;;5099552;28;20043;-70
2021/11/02 09:10:20;;;;;;;36.85;22.88;;;8.90;99.90;;;;;;5095051;28;20024;-70
2021/11/02 09:12:51;;;;;;;40.13;22.05;;;8.90;99.90;;;;;;5084197;28;20400;-70
2021/11/02 09:15:23;;;;;;;48.25;23.85;;;8.90;99.90;;;;;;5093379;28;20059;-70
2021/11/02 09:17:52;;;;;;;55.17;26.75;;;8.90;99.90;;;;;;5089856;28;20354;-70
2021/11/02 09:20:18;;;;;;;57.80;28.95;;;8.90;99.90;;;;;;5095023;28;20013;-70
2021/11/02 09:22:45;;;;;;;56.85;31.35;;;8.80;99.90;;;;;;5094659;28;20027;-72
2021/11/02 09:25:12;;;;;;;44.08;26.67;;;8.90;99.90;;;;;;5091261;28;20024;-72
2021/11/02 09:27:39;;;;;;;43.10;25.25;;;8.90;99.90;;;;;;5074731;28;20036;-71
2021/11/02 09:30:06;;;;;;;36.58;22.27;;;8.90;99.90;;;;;;5074800;28;20020;-70
2021/11/02 09:32:35;;;;;;;32.72;21.15;;;8.80;99.90;;;;;;5073324;28;20029;-70
2021/11/02 09:35:00;;;;;;;34.13;21.92;;;8.90;99.90;;;;;;5073240;28;20025;-70
2021/11/02 09:37:32;;;;;;;34.03;21.42;;;8.90;99.90;;;;;;5082479;28;20020;-71
2021/11/02 09:40:20;;;;;;;32.58;20.67;;;8.90;99.90;;;;;;5094361;28;20020;-70
2021/11/02 09:43:22;;;;;;;38.20;22.17;;;8.80;99.90;;;;;;5093400;28;20386;-70
2021/11/02 09:46:26;;;;;;;35.78;22.23;;;8.80;99.90;;;;;;5082994;28;20109;-70
2021/11/02 09:49:16;;;;;;;43.97;23.35;;;8.80;99.90;;;;;;5091096;28;20031;-71
2021/11/02 09:51:59;;;;;;;37.40;22.23;;;8.80;99.90;;;;;;5093335;28;20272;-70
2021/11/02 09:54:59;;;;;;;39.65;25.23;;;8.80;99.90;;;;;;5092884;28;20397;-70
2021/11/02 09:57:43;;;;;;;44.28;25.40;;;8.90;99.90;;;;;;5093982;28;20036;-71
2021/11/02 10:00:18;;;;;;;42.42;23.40;;;8.90;99.90;;;;;;5094202;28;20051;-70
2021/11/02 10:03:10;;;;;;;40.28;24.63;;;8.80;99.90;;;;;;5094329;28;20031;-72
2021/11/02 10:05:41;;;;;;;38.80;23.45;;;8.90;99.90;;;;;;5093855;28;20024;-71
2021/11/02 10:08:33;;;;;;;43.55;24.50;;;8.80;99.90;;;;;;5092895;28;20032;-71
2021/11/02 10:11:30;;;;;;;42.42;24.40;;;8.80;99.90;;;;;;5093656;28;20024;-70
2021/11/02 10:14:17;;;;;;;43.35;25.13;;;8.90;99.90;;;;;;5091198;28;20438;-70
2021/11/02 10:16:56;;;;;;;45.85;25.13;;;8.80;99.90;;;;;;5092627;28;20043;-71
2021/11/02 10:19:25;;;;;;;41.88;23.98;;;8.80;99.90;;;;;;5091811;28;20063;-71
2021/11/02 10:22:09;;;;;;;36.33;22.95;;;8.80;99.90;;;;;;5093096;28;20024;-71
2021/11/02 10:24:56;;;;;;;38.47;21.98;;;8.80;99.90;;;;;;5093357;28;20035;-71
2021/11/02 10:27:52;;;;;;;34.47;20.98;;;8.90;99.90;;;;;;5091580;28;20031;-70
2021/11/02 10:30:45;;;;;;;37.65;24.63;;;8.90;99.90;;;;;;5091660;28;20020;-71
2021/11/02 10:33:17;;;;;;;42.22;26.85;;;8.90;99.90;;;;;;5092894;28;20028;-71
2021/11/02 10:36:10;;;;;;;40.13;25.52;;;9.00;99.90;;;;;;5092860;28;20016;-70
2021/11/02 10:38:52;;;;;;;70.65;47.05;;;9.00;99.90;;;;;;5090892;28;20099;-71
2021/11/02 10:41:21;;;;;;;95.05;69.88;;;9.00;99.90;;;;;;5089351;28;20020;-71
2021/11/02 10:44:13;;;;;;;94.05;64.78;;;9.00;99.90;;;;;;5092910;28;20027;-71
2021/11/02 10:46:52;;;;;;;109.88;69.25;;;9.00;99.90;;;;;;5091032;28;20028;-70
2021/11/02 10:49:44;;;;;;;107.95;63.08;;;9.10;99.90;;;;;;5091935;28;20052;-71
2021/11/02 10:52:12;;;;;;;84.80;49.08;;;9.10;99.90;;;;;;5092978;28;20036;-71
2021/11/02 10:55:18;;;;;;;70.88;42.28;;;9.10;99.90;;;;;;5092801;28;20016;-71
2021/11/02 10:58:04;;;;;;;77.65;44.13;;;9.20;99.90;;;;;;5027607;28;20021;-71
2021/11/02 11:00:32;;;;;;;87.45;48.72;;;9.20;99.90;;;;;;5017818;28;20038;-71
2021/11/02 11:03:04;;;;;;;64.38;37.53;;;9.20;99.90;;;;;;5070030;28;20036;-71
2021/11/02 11:05:32;;;;;;;43.15;26.35;;;9.20;99.90;;;;;;5092806;28;20461;-70
2021/11/02 11:07:59;;;;;;;42.05;26.23;;;9.30;99.90;;;;;;5093210;28;20384;-71
2021/11/02 11:10:26;;;;;;;36.35;23.23;;;9.30;99.90;;;;;;5093506;28;20119;-71
2021/11/02 11:12:55;;;;;;;55.78;30.55;;;9.30;99.90;;;;;;5091035;28;20028;-70
2021/11/02 11:15:28;;;;;;;63.70;36.03;;;9.30;99.90;;;;;;5086615;28;20027;-70
2021/11/02 11:18:01;;;;;;;72.15;39.75;;;9.30;99.90;;;;;;5072618;28;20016;-71
2021/11/02 11:20:27;;;;;;;55.40;35.55;;;9.40;99.90;;;;;;5087967;28;20028;-71
2021/11/02 11:22:54;;;;;;;40.58;24.20;;;9.40;99.90;;;;;;5072615;28;20025;-71
2021/11/02 11:25:28;;;;;;;46.63;28.02;;;9.40;99.90;;;;;;5072110;28;20025;-70
2021/11/02 11:27:56;;;;;;;51.58;32.83;;;9.40;99.90;;;;;;5091283;28;20485;-71
2021/11/02 11:30:26;;;;;;;44.58;27.92;;;9.40;99.90;;;;;;5090962;28;20018;-71
2021/11/02 11:32:52;;;;;;;50.08;30.52;;;9.50;99.90;;;;;;5092298;28;20032;-71
2021/11/02 11:35:18;;;;;;;40.65;25.00;;;9.50;99.90;;;;;;5092153;28;20031;-71
2021/11/02 11:37:50;;;;;;;40.17;25.33;;;9.60;99.90;;;;;;5089456;28;20024;-71
2021/11/02 11:40:21;;;;;;;46.88;27.63;;;9.60;99.90;;;;;;5088473;28;20560;-71
2021/11/02 11:42:49;;;;;;;35.03;23.65;;;9.60;99.90;;;;;;5095748;28;20024;-71
2021/11/02 11:45:25;;;;;;;38.08;23.73;;;9.60;99.90;;;;;;5095881;28;20439;-70
2021/11/02 11:48:07;;;;;;;34.97;21.85;;;9.70;99.90;;;;;;5093556;28;20016;-70
2021/11/02 11:50:34;;;;;;;29.92;19.20;;;9.70;99.90;;;;;;5094104;28;20373;-70
2021/11/02 11:53:03;;;;;;;30.80;19.52;;;9.70;99.90;;;;;;5096130;28;20028;-71
2021/11/02 11:55:32;;;;;;;42.38;23.75;;;9.70;99.90;;;;;;5095496;28;20027;-70
2021/11/02 11:58:24;;;;;;;37.17;22.95;;;9.70;99.90;;;;;;5094186;28;20024;-70
2021/11/02 12:01:14;;;;;;;38.28;25.38;;;9.70;99.90;;;;;;5090337;28;20036;-71
2021/11/02 12:04:13;;;;;;;39.28;23.02;;;9.70;99.90;;;;;;5099547;28;20020;-70
2021/11/02 12:07:03;;;;;;;31.60;20.38;;;9.60;99.90;;;;;;5092908;28;20027;-70
2021/11/02 12:09:38;;;;;;;35.42;22.40;;;9.60;99.90;;;;;;5095711;28;20032;-70
2021/11/02 12:12:06;;;;;;;27.73;18.95;;;9.50;99.90;;;;;;5094787;28;20032;-71
2021/11/02 12:14:42;;;;;;;31.00;20.02;;;9.50;99.90;;;;;;5095689;28;20124;-71
2021/11/02 12:17:15;;;;;;;40.67;23.02;;;9.50;99.90;;;;;;5096253;28;20020;-71
2021/11/02 12:19:44;;;;;;;60.22;28.30;;;9.60;99.90;;;;;;5095480;28;20035;-70
2021/11/02 12:22:17;;;;;;;42.63;22.58;;;9.60;99.90;;;;;;5096240;28;20069;-71
2021/11/02 12:24:44;;;;;;;33.38;20.80;;;9.60;99.90;;;;;;5093697;28;20051;-71
2021/11/02 12:27:20;;;;;;;33.05;20.50;;;9.60;99.90;;;;;;5095954;28;20020;-71
2021/11/02 12:29:48;;;;;;;28.95;20.73;;;9.60;99.90;;;;;;5094725;28;20024;-71
2021/11/02 12:32:17;;;;;;;30.10;19.00;;;9.60;99.90;;;;;;5092793;28;20098;-70
2021/11/02 12:34:46;;;;;;;35.80;21.98;;;9.60;99.90;;;;;;5094455;28;20020;-71
2021/11/02 12:37:13;;;;;;;39.47;25.60;;;9.60;99.90;;;;;;5104778;28;20024;-72
2021/11/02 12:39:39;;;;;;;48.67;30.83;;;9.60;99.90;;;;;;5112601;28;20036;-71
2021/11/02 12:42:05;;;;;;;43.85;25.35;;;9.60;99.90;;;;;;5111742;28;20059;-71
2021/11/02 12:44:33;;;;;;;47.17;27.83;;;9.50;99.90;;;;;;5111232;28;20032;-71
2021/11/02 12:47:04;;;;;;;73.85;42.63;;;9.50;99.90;;;;;;5095833;28;20031;-70
2021/11/02 12:49:56;;;;;;;96.82;53.25;;;9.50;99.90;;;;;;5106091;28;20467;-70
2021/11/02 12:52:28;;;;;;;71.78;44.78;;;9.50;99.90;;;;;;5088940;28;20058;-70
2021/11/02 12:55:06;;;;;;;60.40;40.00;;;9.50;99.90;;;;;;5110995;28;20035;-71
2021/11/02 12:57:43;;;;;;;44.92;31.52;;;9.50;99.90;;;;;;5095153;28;20020;-70
2021/11/02 13:00:27;;;;;;;47.15;32.45;;;9.50;99.90;;;;;;5113007;28;20024;-70
2021/11/02 13:02:59;;;;;;;36.58;25.30;;;9.50;99.90;;;;;;5109143;28;20032;-70
2021/11/02 13:05:27;;;;;;;42.05;26.55;;;9.50;99.90;;;;;;5110116;28;20110;-70
2021/11/02 13:08:08;;;;;;;52.30;30.55;;;9.50;99.90;;;;;;5112680;28;20073;-71
2021/11/02 13:10:35;;;;;;;43.55;27.02;;;9.50;99.90;;;;;;5111171;28;20440;-71
2021/11/02 13:13:16;;;;;;;46.58;28.10;;;9.40;99.90;;;;;;5111502;28;20501;-72
2021/11/02 13:15:52;;;;;;;46.33;27.17;;;9.50;99.90;;;;;;5090037;28;20056;-71
2021/11/02 13:18:47;;;;;;;46.90;31.55;;;9.50;99.90;;;;;;5093140;28;20036;-71
2021/11/02 13:21:29;;;;;;;39.70;26.33;;;9.40;99.90;;;;;;5084203;28;20036;-70
2021/11/02 13:24:21;;;;;;;37.55;24.38;;;9.40;99.90;;;;;;5092141;28;20012;-70
2021/11/02 13:26:50;;;;;;;35.00;25.08;;;9.40;99.90;;;;;;5096517;28;20029;-70
2021/11/02 13:29:23;;;;;;;40.55;27.95;;;9.40;99.90;;;;;;5094605;28;20443;-70
2021/11/02 13:31:50;;;;;;;;;;;9.50;99.90;;;;;;5091160;28;20028;-71
2021/11/02 13:34:33;;;;;;;40.97;25.33;;;9.50;99.90;;;;;;5093460;28;19904;-70
2021/11/02 13:37:11;;;;;;;41.85;25.58;;;9.50;99.90;;;;;;5093115;28;20020;-71
2021/11/02 13:39:57;;;;;;;64.97;38.92;;;9.50;99.90;;;;;;5090286;28;20481;-70
2021/11/02 13:42:46;;;;;;;69.78;40.80;;;9.50;99.90;;;;;;5093859;28;20024;-70
2021/11/02 13:45:14;;;;;;;69.25;38.92;;;9.40;99.90;;;;;;5093828;28;20028;-70
2021/11/02 13:47:41;;;;;;;162.77;87.82;;;9.40;99.90;;;;;;5093449;28;21152;-71
2021/11/02 13:50:07;;;;;;;116.03;64.97;;;9.50;99.90;;;;;;5085327;28;20085;-71
2021/11/02 13:52:34;;;;;;;135.88;71.53;;;9.50;99.90;;;;;;5091931;28;20068;-71
2021/11/02 13:55:04;;;;;;;149.13;80.57;;;9.40;99.90;;;;;;5094007;28;20347;-70
2021/11/02 13:57:30;;;;;;;144.32;76.88;;;9.40;99.90;;;;;;5094404;28;20532;-71
2021/11/02 13:59:55;;;;;;;157.00;78.70;;;9.30;99.90;;;;;;5092675;28;20123;-72
2021/11/02 14:02:23;;;;;;;225.68;109.18;;;9.30;99.90;;;;;;5092961;28;20028;-72
2021/11/02 14:04:51;;;;;;;112.90;56.50;;;9.20;99.90;;;;;;5092599;28;20576;-71
2021/11/02 14:07:18;;;;;;;34.33;23.63;;;9.20;99.90;;;;;;5093398;28;20028;-70
2021/11/02 14:09:56;;;;;;;78.88;42.33;;;9.10;99.90;;;;;;5094503;28;20040;-70
2021/11/02 14:12:27;;;;;;;51.03;31.75;;;9.00;99.90;;;;;;5093982;28;20032;-71
2021/11/02 14:15:09;;;;;;;54.75;27.77;;;8.90;99.90;;;;;;5093879;28;20031;-71
2021/11/02 14:17:38;;;;;;;66.03;33.75;;;8.70;99.90;;;;;;5092088;28;20110;-70
2021/11/02 14:20:05;;;;;;;55.10;29.27;;;8.60;99.90;;;;;;5094029;28;20071;-71
2021/11/02 14:22:52;;;;;;;43.72;22.63;;;8.60;99.90;;;;;;5093379;28;20389;-71
2021/11/02 14:25:20;;;;;;;88.47;39.33;;;8.50;99.90;;;;;;5093977;28;20047;-71
2021/11/02 14:27:51;;;;;;;58.45;28.63;;;8.50;99.90;;;;;;5093972;28;20121;-71
2021/11/02 14:30:44;;;;;;;110.57;52.95;;;8.40;99.90;;;;;;5093885;28;20016;-71
2021/11/02 14:33:33;;;;;;;71.65;38.95;;;8.40;99.90;;;;;;5092221;28;20048;-71
2021/11/02 14:36:04;;;;;;;66.68;36.78;;;8.30;99.90;;;;;;5082280;28;20028;-71
2021/11/02 14:38:50;;;;;;;49.58;29.15;;;8.30;99.90;;;;;;5092562;28;20587;-71
2021/11/02 14:41:32;;;;;;;54.92;32.28;;;8.20;99.90;;;;;;5091316;28;20540;-72
2021/11/02 14:44:24;;;;;;;57.45;34.03;;;8.20;99.90;;;;;;5090974;28;20102;-71
2021/11/02 14:47:00;;;;;;;55.45;31.08;;;8.20;99.90;;;;;;5093731;28;20035;-70
2021/11/02 14:49:28;;;;;;;29.35;20.65;;;8.10;99.90;;;;;;5093202;28;20019;-70
2021/11/02 14:51:57;;;;;;;59.65;32.80;;;8.10;99.90;;;;;;5091486;28;20528;-71
2021/11/02 14:54:30;;;;;;;38.10;22.65;;;8.10;99.90;;;;;;5091317;28;20385;-70
2021/11/02 14:57:18;;;;;;;33.58;21.15;;;8.10;99.90;;;;;;5088408;28;20024;-70
2021/11/02 14:59:52;;;;;;;37.70;21.98;;;8.10;99.90;;;;;;5092700;28;20051;-70
2021/11/02 15:02:33;;;;;;;49.10;28.55;;;8.10;99.90;;;;;;5094514;28;20031;-70
2021/11/02 15:05:04;;;;;;;78.65;40.58;;;8.10;99.90;;;;;;5090618;28;20024;-71
2021/11/02 15:07:39;;;;;;;57.65;31.83;;;8.10;99.90;;;;;;5091569;28;20016;-71
2021/11/02 15:10:08;;;;;;;50.78;28.38;;;8.10;99.90;;;;;;5087706;28;20035;-71
2021/11/02 15:12:35;;;;;;;40.28;25.05;;;8.10;99.90;;;;;;5083424;28;20443;-71
2021/11/02 15:15:03;;;;;;;31.98;20.88;;;8.10;99.90;;;;;;5086071;28;20112;-70
2021/11/02 15:17:29;;;;;;;35.80;21.98;;;8.00;99.90;;;;;;5083001;28;20028;-70
2021/11/02 15:19:55;;;;;;;34.72;22.48;;;8.00;99.90;;;;;;5084772;28;20370;-71
2021/11/02 15:22:22;;;;;;;35.17;20.50;;;8.00;99.90;;;;;;5082650;28;20031;-71
2021/11/02 15:24:57;;;;;;;28.02;18.63;;;8.00;99.90;;;;;;5084534;28;20032;-70
2021/11/02 15:27:29;;;;;;;34.88;20.67;;;8.00;99.90;;;;;;5081835;28;20555;-71
2021/11/02 15:30:07;;;;;;;30.73;19.83;;;8.00;99.90;;;;;;5082895;28;20020;-70
2021/11/02 15:32:38;;;;;;;31.60;19.90;;;8.00;99.90;;;;;;5082212;28;20040;-70
2021/11/02 15:35:06;;;;;;;37.90;21.90;;;8.00;99.90;;;;;;5081304;28;20033;-71
2021/11/02 15:37:34;;;;;;;37.30;21.17;;;8.00;99.90;;;;;;5082561;28;20013;-71
2021/11/02 15:40:03;;;;;;;33.92;21.23;;;8.00;99.90;;;;;;5082484;28;20462;-70
2021/11/02 15:42:36;;;;;;;34.33;21.40;;;8.00;99.90;;;;;;5082118;28;20473;-70
2021/11/02 15:45:08;;;;;;;38.90;22.65;;;8.00;99.90;;;;;;5085416;28;20367;-70
2021/11/02 15:47:38;;;;;;;33.58;22.38;;;8.00;99.90;;;;;;5082907;28;20016;-71
2021/11/02 15:50:08;;;;;;;36.17;21.77;;;8.00;99.90;;;;;;5077133;28;20020;-70
2021/11/02 15:52:35;;;;;;;40.83;25.00;;;8.00;99.90;;;;;;5084068;28;20119;-70
2021/11/02 15:55:08;;;;;;;44.72;25.45;;;8.00;99.90;;;;;;5085046;28;20024;-70
2021/11/02 15:57:39;;;;;;;42.03;25.67;;;8.00;99.90;;;;;;5085388;28;20382;-70
2021/11/02 16:00:06;;;;;;;41.20;25.30;;;8.00;99.90;;;;;;5085563;28;20020;-70
2021/11/02 16:02:40;;;;;;;46.50;26.58;;;8.00;99.90;;;;;;5087027;28;20136;-71
2021/11/02 16:05:08;;;;;;;50.33;28.55;;;8.00;99.90;;;;;;5080953;28;20089;-70
2021/11/02 16:07:34;;;;;;;46.53;26.67;;;8.00;99.90;;;;;;5083178;28;20109;-71
2021/11/02 16:10:00;;;;;;;55.58;29.65;;;8.00;99.90;;;;;;5080566;28;20024;-70
2021/11/02 16:12:39;;;;;;;64.90;33.75;;;8.00;99.90;;;;;;5079967;28;20044;-72
2021/11/02 16:15:15;;;;;;;69.20;34.25;;;8.00;99.90;;;;;;5077484;28;20036;-71
2021/11/02 16:17:52;;;;;;;59.55;31.65;;;8.00;99.90;;;;;;5076592;28;20020;-70
2021/11/02 16:20:38;;;;;;;101.28;47.88;;;8.00;99.90;;;;;;5080151;28;20500;-70
2021/11/02 16:23:09;;;;;;;120.90;60.80;;;8.00;99.90;;;;;;5083921;28;21069;-70
2021/11/02 16:25:42;;;;;;;163.90;77.90;;;8.00;99.90;;;;;;5081157;28;20028;-71
2021/11/02 16:28:12;;;;;;;;;;;8.00;99.90;;;;;;5084544;28;20608;-71
2021/11/02 16:31:00;;;;;;;137.90;70.40;;;8.00;99.90;;;;;;5081528;28;20005;-70
2021/11/02 16:33:44;;;;;;;158.73;84.50;;;8.00;99.90;;;;;;5080177;28;20036;-70
2021/11/02 16:36:29;;;;;;;187.48;97.63;;;8.00;99.90;;;;;;5082496;28;20036;-70
2021/11/02 16:39:14;;;;;;;261.67;128.80;;;8.00;99.90;;;;;;5084052;28;20024;-71
2021/11/02 16:41:48;;;;;;;203.50;101.03;;;8.00;99.90;;;;;;5086078;28;20039;-71
2021/11/02 16:44:37;;;;;;;104.47;57.80;;;8.00;99.90;;;;;;5085581;28;20024;-72
2021/11/02 16:47:13;;;;;;;85.72;51.10;;;7.90;99.90;;;;;;5085884;28;20044;-71
2021/11/02 16:49:40;;;;;;;84.30;50.88;;;8.00;99.90;;;;;;5087598;28;20024;-70
2021/11/02 16:52:29;;;;;;;84.30;47.90;;;7.90;99.90;;;;;;5088047;28;20040;-71
2021/11/02 16:55:08;;;;;;;83.13;51.22;;;7.90;99.90;;;;;;5085296;28;20024;-71
2021/11/02 16:57:35;;;;;;;102.40;59.17;;;7.90;99.90;;;;;;5086094;28;20070;-70
2021/11/02 17:00:06;;;;;;;84.30;48.53;;;7.80;99.90;;;;;;5082778;28;20020;-70
2021/11/02 17:02:40;;;;;;;73.03;43.33;;;7.80;99.90;;;;;;5085518;28;20128;-70
2021/11/02 17:05:26;;;;;;;66.22;40.88;;;7.80;99.90;;;;;;5083442;28;20024;-70
2021/11/02 17:08:07;;;;;;;59.88;36.92;;;7.90;99.90;;;;;;5086277;28;20428;-70
2021/11/02 17:10:43;;;;;;;89.50;50.22;;;7.90;99.90;;;;;;5083412;28;20105;-73
2021/11/02 17:13:26;;;;;;;102.97;59.22;;;7.80;99.90;;;;;;5080818;28;20052;-70
2021/11/02 17:16:04;;;;;;;79.18;45.97;;;7.80;99.90;;;;;;5080565;28;20028;-70
2021/11/02 17:18:52;;;;;;;66.25;42.88;;;7.90;99.90;;;;;;5081871;28;20059;-71
2021/11/02 17:21:25;;;;;;;62.88;38.30;;;7.90;99.90;;;;;;5084662;28;20020;-71
2021/11/02 17:23:52;;;;;;;69.40;39.45;;;7.80;99.90;;;;;;5083213;28;20028;-70
2021/11/02 17:26:20;;;;;;;64.90;38.97;;;7.70;99.90;;;;;;5081129;28;20111;-70
2021/11/02 17:28:48;;;;;;;59.47;35.78;;;7.70;99.90;;;;;;5081115;28;20020;-70
2021/11/02 17:31:17;;;;;;;48.00;29.83;;;7.70;99.90;;;;;;5098035;28;20569;-71
2021/11/02 17:33:43;;;;;;;50.05;30.17;;;7.70;99.90;;;;;;5082244;28;20535;-70
2021/11/02 17:36:12;;;;;;;57.28;31.35;;;7.70;99.90;;;;;;5082839;28;20505;-70
2021/11/02 17:38:40;;;;;;;51.33;32.45;;;7.70;99.90;;;;;;5079536;28;20032;-71
2021/11/02 17:41:07;;;;;;;65.35;40.33;;;7.60;99.90;;;;;;5100479;28;20058;-70
2021/11/02 17:43:35;;;;;;;60.30;37.88;;;7.60;99.90;;;;;;5082636;28;20059;-71
2021/11/02 17:46:01;;;;;;;65.40;41.38;;;7.60;99.90;;;;;;5075768;28;20013;-70
2021/11/02 17:48:27;;;;;;;62.05;37.70;;;7.60;99.90;;;;;;5080314;28;20347;-70
2021/11/02 17:50:54;;;;;;;51.45;30.90;;;7.60;99.90;;;;;;5081822;28;20040;-71
2021/11/02 17:53:20;;;;;;;53.80;33.47;;;7.50;99.90;;;;;;5077613;28;20025;-70
2021/11/02 17:55:46;;;;;;;62.15;36.28;;;7.50;99.90;;;;;;5082938;28;20077;-72
2021/11/02 17:58:13;;;;;;;66.10;36.75;;;7.50;99.90;;;;;;5083219;28;20031;-72
2021/11/02 18:00:39;;;;;;;67.10;38.63;;;7.50;99.90;;;;;;5082237;28;20024;-73
2021/11/02 18:03:07;;;;;;;70.22;40.88;;;7.50;99.90;;;;;;5082235;28;20077;-73
2021/11/02 18:05:33;;;;;;;125.82;55.00;;;7.50;99.90;;;;;;5093265;28;20050;-72